sensor_id;sensor_type;location;lat;lon;timestamp;pressure;altitude;pressure_sealevel;temperature;humidity
52591;BME280;38483;42.620;25.394;2023-04-15T00:00:57;96304.38;;;13.35;80.90
52591;BME280;38483;42.620;25.394;2023-04-15T00:03:26;96290.94;;;13.41;80.53
52591;BME280;38483;42.620;25.394;2023-04-15T00:05:54;96263.09;;;13.18;82.66
52591;BME280;38483;42.620;25.394;2023-04-15T00:08:22;96267.13;;;13.22;83.01
52591;BME280;38483;42.620;25.394;2023-04-15T00:10:49;96279.09;;;13.37;83.28
52591;BME280;38483;42.620;25.394;2023-04-15T00:13:16;96278.88;;;13.40;82.92
52591;BME280;38483;42.620;25.394;2023-04-15T00:15:43;96306.44;;;13.55;83.38
52591;BME280;38483;42.620;25.394;2023-04-15T00:18:10;96310.00;;;13.54;83.69
52591;BME280;38483;42.620;25.394;2023-04-15T00:20:37;96290.41;;;13.61;83.97
52591;BME280;38483;42.620;25.394;2023-04-15T00:23:04;96277.38;;;13.61;84.46
52591;BME280;38483;42.620;25.394;2023-04-15T00:25:31;96265.00;;;13.52;84.46
52591;BME280;38483;42.620;25.394;2023-04-15T00:27:58;96298.75;;;13.53;84.78
52591;BME280;38483;42.620;25.394;2023-04-15T00:30:26;96308.41;;;13.51;84.45
52591;BME280;38483;42.620;25.394;2023-04-15T00:32:54;96331.41;;;13.45;84.85
52591;BME280;38483;42.620;25.394;2023-04-15T00:35:21;96360.03;;;13.45;85.47
52591;BME280;38483;42.620;25.394;2023-04-15T00:37:49;96357.53;;;13.43;85.22
52591;BME280;38483;42.620;25.394;2023-04-15T00:40:18;96319.13;;;13.22;85.60
52591;BME280;38483;42.620;25.394;2023-04-15T00:42:47;96314.78;;;12.70;88.14
52591;BME280;38483;42.620;25.394;2023-04-15T00:45:14;96298.66;;;12.53;90.86
52591;BME280;38483;42.620;25.394;2023-04-15T00:47:42;96263.09;;;12.14;92.97
52591;BME280;38483;42.620;25.394;2023-04-15T00:50:43;96236.84;;;11.92;95.24
52591;BME280;38483;42.620;25.394;2023-04-15T00:53:10;96236.72;;;12.07;94.95
52591;BME280;38483;42.620;25.394;2023-04-15T00:55:38;96250.66;;;11.92;95.52
52591;BME280;38483;42.620;25.394;2023-04-15T00:58:05;96283.16;;;12.24;93.82
52591;BME280;38483;42.620;25.394;2023-04-15T01:00:32;96312.44;;;12.53;92.53
52591;BME280;38483;42.620;25.394;2023-04-15T01:03:00;96325.16;;;12.70;91.45
52591;BME280;38483;42.620;25.394;2023-04-15T01:05:27;96325.81;;;12.86;90.50
52591;BME280;38483;42.620;25.394;2023-04-15T01:07:55;96325.84;;;12.99;89.27
52591;BME280;38483;42.620;25.394;2023-04-15T01:10:22;96326.47;;;13.02;89.62
52591;BME280;38483;42.620;25.394;2023-04-15T01:13:09;96306.81;;;12.98;89.43
52591;BME280;38483;42.620;25.394;2023-04-15T01:16:11;96288.53;;;12.87;88.86
52591;BME280;38483;42.620;25.394;2023-04-15T01:18:39;96290.06;;;12.77;89.07
52591;BME280;38483;42.620;25.394;2023-04-15T01:21:06;96292.25;;;12.71;89.15
52591;BME280;38483;42.620;25.394;2023-04-15T01:23:35;96268.44;;;12.77;89.24
52591;BME280;38483;42.620;25.394;2023-04-15T01:26:05;96226.03;;;12.64;88.49
52591;BME280;38483;42.620;25.394;2023-04-15T01:28:34;96256.56;;;12.60;89.64
52591;BME280;38483;42.620;25.394;2023-04-15T01:31:11;96250.06;;;12.67;90.10
52591;BME280;38483;42.620;25.394;2023-04-15T01:33:40;96269.06;;;12.80;90.06
52591;BME280;38483;42.620;25.394;2023-04-15T01:36:26;96279.69;;;12.90;88.78
52591;BME280;38483;42.620;25.394;2023-04-15T01:38:54;96294.66;;;12.99;88.90
52591;BME280;38483;42.620;25.394;2023-04-15T01:41:27;96305.09;;;13.12;88.23
52591;BME280;38483;42.620;25.394;2023-04-15T01:43:55;96319.25;;;13.20;87.29
52591;BME280;38483;42.620;25.394;2023-04-15T01:46:24;96305.22;;;13.23;87.85
52591;BME280;38483;42.620;25.394;2023-04-15T01:48:53;96306.75;;;13.25;87.34
52591;BME280;38483;42.620;25.394;2023-04-15T01:51:21;96301.78;;;13.22;87.10
52591;BME280;38483;42.620;25.394;2023-04-15T01:53:50;96313.41;;;13.29;87.39
52591;BME280;38483;42.620;25.394;2023-04-15T01:56:19;96317.56;;;13.32;86.79
52591;BME280;38483;42.620;25.394;2023-04-15T01:58:47;96318.41;;;13.20;87.01
52591;BME280;38483;42.620;25.394;2023-04-15T02:01:15;96314.88;;;13.08;87.05
52591;BME280;38483;42.620;25.394;2023-04-15T02:03:46;96311.56;;;13.19;87.00
52591;BME280;38483;42.620;25.394;2023-04-15T02:06:15;96296.88;;;13.05;87.95
52591;BME280;38483;42.620;25.394;2023-04-15T02:08:44;96246.28;;;12.84;87.56
52591;BME280;38483;42.620;25.394;2023-04-15T02:11:12;96278.19;;;13.13;87.34
52591;BME280;38483;42.620;25.394;2023-04-15T02:13:40;96273.38;;;13.06;87.61
52591;BME280;38483;42.620;25.394;2023-04-15T02:16:16;96285.94;;;13.00;88.00
52591;BME280;38483;42.620;25.394;2023-04-15T02:18:45;96319.72;;;13.00;87.64
52591;BME280;38483;42.620;25.394;2023-04-15T02:21:13;96335.78;;;12.80;88.36
52591;BME280;38483;42.620;25.394;2023-04-15T02:23:41;96347.22;;;12.77;88.24
52591;BME280;38483;42.620;25.394;2023-04-15T02:26:13;96340.34;;;12.76;88.83
52591;BME280;38483;42.620;25.394;2023-04-15T02:28:41;96356.91;;;12.75;88.93
52591;BME280;38483;42.620;25.394;2023-04-15T02:31:09;96360.22;;;12.77;88.99
52591;BME280;38483;42.620;25.394;2023-04-15T02:33:37;96355.53;;;12.82;89.87
52591;BME280;38483;42.620;25.394;2023-04-15T02:36:06;96367.56;;;12.71;89.51
52591;BME280;38483;42.620;25.394;2023-04-15T02:38:35;96349.19;;;12.74;89.03
52591;BME280;38483;42.620;25.394;2023-04-15T02:41:03;96354.69;;;12.69;89.76
52591;BME280;38483;42.620;25.394;2023-04-15T02:43:31;96346.97;;;12.68;89.17
52591;BME280;38483;42.620;25.394;2023-04-15T02:46:00;96334.00;;;12.68;90.13
52591;BME280;38483;42.620;25.394;2023-04-15T02:48:28;96331.69;;;12.37;90.89
52591;BME280;38483;42.620;25.394;2023-04-15T02:51:17;96335.03;;;12.12;92.19
52591;BME280;38483;42.620;25.394;2023-04-15T02:53:49;96344.72;;;12.22;92.66
52591;BME280;38483;42.620;25.394;2023-04-15T02:56:18;96335.38;;;12.20;92.51
52591;BME280;38483;42.620;25.394;2023-04-15T02:58:47;96310.03;;;12.11;93.42
52591;BME280;38483;42.620;25.394;2023-04-15T03:01:17;96294.72;;;11.80;93.56
52591;BME280;38483;42.620;25.394;2023-04-15T03:03:47;96290.06;;;11.85;94.51
52591;BME280;38483;42.620;25.394;2023-04-15T03:06:15;96294.16;;;11.89;93.61
52591;BME280;38483;42.620;25.394;2023-04-15T03:08:43;96308.94;;;12.01;93.98
52591;BME280;38483;42.620;25.394;2023-04-15T03:11:14;96314.38;;;12.10;92.64
52591;BME280;38483;42.620;25.394;2023-04-15T03:13:42;96305.41;;;12.28;92.55
52591;BME280;38483;42.620;25.394;2023-04-15T03:16:21;96307.75;;;12.46;90.80
52591;BME280;38483;42.620;25.394;2023-04-15T03:18:50;96310.84;;;12.38;89.98
52591;BME280;38483;42.620;25.394;2023-04-15T03:21:20;96315.53;;;12.46;89.91
52591;BME280;38483;42.620;25.394;2023-04-15T03:23:49;96304.59;;;12.41;90.52
52591;BME280;38483;42.620;25.394;2023-04-15T03:26:28;96277.16;;;12.24;90.19
52591;BME280;38483;42.620;25.394;2023-04-15T03:29:00;96301.72;;;12.45;90.24
52591;BME280;38483;42.620;25.394;2023-04-15T03:31:29;96311.00;;;12.62;88.75
52591;BME280;38483;42.620;25.394;2023-04-15T03:33:57;96312.25;;;12.56;88.71
52591;BME280;38483;42.620;25.394;2023-04-15T03:36:27;96318.50;;;12.66;88.96
52591;BME280;38483;42.620;25.394;2023-04-15T03:38:56;96335.16;;;12.76;87.99
52591;BME280;38483;42.620;25.394;2023-04-15T03:41:24;96347.63;;;12.71;87.81
52591;BME280;38483;42.620;25.394;2023-04-15T03:43:53;96328.06;;;12.66;87.15
52591;BME280;38483;42.620;25.394;2023-04-15T03:46:21;96341.72;;;12.69;87.35
52591;BME280;38483;42.620;25.394;2023-04-15T03:48:49;96348.41;;;12.59;87.74
52591;BME280;38483;42.620;25.394;2023-04-15T03:51:17;96346.31;;;12.52;87.23
52591;BME280;38483;42.620;25.394;2023-04-15T03:53:46;96353.53;;;12.20;88.41
52591;BME280;38483;42.620;25.394;2023-04-15T03:56:34;96356.38;;;12.03;89.47
52591;BME280;38483;42.620;25.394;2023-04-15T03:59:37;96352.25;;;11.86;90.48
52591;BME280;38483;42.620;25.394;2023-04-15T04:02:58;96351.84;;;11.92;90.89
52591;BME280;38483;42.620;25.394;2023-04-15T04:05:26;96353.81;;;11.75;91.81
52591;BME280;38483;42.620;25.394;2023-04-15T04:07:55;96356.41;;;11.75;92.87
52591;BME280;38483;42.620;25.394;2023-04-15T04:10:23;96366.59;;;11.92;91.29
52591;BME280;38483;42.620;25.394;2023-04-15T04:12:51;96395.75;;;12.23;90.61
52591;BME280;38483;42.620;25.394;2023-04-15T04:15:19;96417.69;;;12.32;90.52
52591;BME280;38483;42.620;25.394;2023-04-15T04:17:47;96427.22;;;12.46;89.15
52591;BME280;38483;42.620;25.394;2023-04-15T04:20:15;96436.94;;;12.56;88.78
52591;BME280;38483;42.620;25.394;2023-04-15T04:22:43;96429.13;;;12.56;88.62
52591;BME280;38483;42.620;25.394;2023-04-15T04:25:11;96446.72;;;12.65;87.97
52591;BME280;38483;42.620;25.394;2023-04-15T04:27:39;96418.53;;;12.59;87.22
52591;BME280;38483;42.620;25.394;2023-04-15T04:30:08;96429.50;;;12.09;89.07
52591;BME280;38483;42.620;25.394;2023-04-15T04:32:36;96434.78;;;11.80;91.24
52591;BME280;38483;42.620;25.394;2023-04-15T04:35:04;96430.88;;;11.73;92.53
52591;BME280;38483;42.620;25.394;2023-04-15T04:37:32;96434.00;;;11.64;92.83
52591;BME280;38483;42.620;25.394;2023-04-15T04:40:00;96421.44;;;11.72;92.92
52591;BME280;38483;42.620;25.394;2023-04-15T04:42:29;96425.16;;;11.82;91.87
52591;BME280;38483;42.620;25.394;2023-04-15T04:44:58;96429.97;;;11.88;91.80
52591;BME280;38483;42.620;25.394;2023-04-15T04:47:26;96422.09;;;11.75;92.81
52591;BME280;38483;42.620;25.394;2023-04-15T04:49:54;96411.72;;;11.75;92.84
52591;BME280;38483;42.620;25.394;2023-04-15T04:52:22;96417.94;;;11.87;93.04
52591;BME280;38483;42.620;25.394;2023-04-15T04:54:50;96408.06;;;11.64;92.98
52591;BME280;38483;42.620;25.394;2023-04-15T04:57:19;96398.84;;;11.74;92.65
52591;BME280;38483;42.620;25.394;2023-04-15T04:59:47;96420.41;;;12.02;90.94
52591;BME280;38483;42.620;25.394;2023-04-15T05:02:15;96415.66;;;12.23;90.66
52591;BME280;38483;42.620;25.394;2023-04-15T05:04:43;96427.03;;;12.35;90.54
52591;BME280;38483;42.620;25.394;2023-04-15T05:07:12;96413.09;;;12.50;89.23
52591;BME280;38483;42.620;25.394;2023-04-15T05:09:40;96409.63;;;12.63;88.31
52591;BME280;38483;42.620;25.394;2023-04-15T05:12:09;96380.56;;;12.44;87.26
52591;BME280;38483;42.620;25.394;2023-04-15T05:14:41;96365.56;;;12.35;87.46
52591;BME280;38483;42.620;25.394;2023-04-15T05:17:09;96368.91;;;12.37;88.02
52591;BME280;38483;42.620;25.394;2023-04-15T05:19:38;96376.84;;;12.48;88.32
52591;BME280;38483;42.620;25.394;2023-04-15T05:22:06;96375.78;;;12.65;86.34
52591;BME280;38483;42.620;25.394;2023-04-15T05:24:35;96391.91;;;12.82;86.41
52591;BME280;38483;42.620;25.394;2023-04-15T05:27:03;96393.66;;;13.08;85.80
52591;BME280;38483;42.620;25.394;2023-04-15T05:29:31;96401.41;;;13.23;84.43
52591;BME280;38483;42.620;25.394;2023-04-15T05:31:59;96404.66;;;13.39;83.65
52591;BME280;38483;42.620;25.394;2023-04-15T05:34:28;96391.25;;;13.45;84.07
52591;BME280;38483;42.620;25.394;2023-04-15T05:36:56;96390.59;;;13.92;83.36
52591;BME280;38483;42.620;25.394;2023-04-15T05:39:24;96414.91;;;14.16;82.15
52591;BME280;38483;42.620;25.394;2023-04-15T05:41:52;96408.88;;;14.28;81.59
52591;BME280;38483;42.620;25.394;2023-04-15T05:44:20;96413.44;;;14.24;81.20
52591;BME280;38483;42.620;25.394;2023-04-15T05:46:48;96429.28;;;14.21;81.31
52591;BME280;38483;42.620;25.394;2023-04-15T05:49:16;96426.81;;;14.20;81.96
52591;BME280;38483;42.620;25.394;2023-04-15T05:51:46;96420.75;;;14.19;81.17
52591;BME280;38483;42.620;25.394;2023-04-15T05:54:14;96428.88;;;14.15;81.90
52591;BME280;38483;42.620;25.394;2023-04-15T05:56:45;96430.34;;;14.06;82.22
52591;BME280;38483;42.620;25.394;2023-04-15T05:59:15;96442.75;;;14.15;81.33
52591;BME280;38483;42.620;25.394;2023-04-15T06:01:43;96430.94;;;14.22;81.36
52591;BME280;38483;42.620;25.394;2023-04-15T06:04:15;96428.34;;;14.35;81.80
52591;BME280;38483;42.620;25.394;2023-04-15T06:06:45;96432.09;;;14.43;80.63
52591;BME280;38483;42.620;25.394;2023-04-15T06:09:13;96452.06;;;14.55;81.03
52591;BME280;38483;42.620;25.394;2023-04-15T06:11:41;96445.41;;;14.51;81.09
52591;BME280;38483;42.620;25.394;2023-04-15T06:14:09;96459.53;;;14.73;80.71
52591;BME280;38483;42.620;25.394;2023-04-15T06:16:38;96457.03;;;14.71;81.11
52591;BME280;38483;42.620;25.394;2023-04-15T06:19:07;96465.84;;;14.81;79.90
52591;BME280;38483;42.620;25.394;2023-04-15T06:21:35;96472.00;;;14.80;79.28
52591;BME280;38483;42.620;25.394;2023-04-15T06:24:03;96463.88;;;14.48;79.88
52591;BME280;38483;42.620;25.394;2023-04-15T06:26:32;96468.81;;;14.64;79.72
52591;BME280;38483;42.620;25.394;2023-04-15T06:29:00;96477.53;;;14.76;79.85
52591;BME280;38483;42.620;25.394;2023-04-15T06:31:29;96475.13;;;14.85;79.78
52591;BME280;38483;42.620;25.394;2023-04-15T06:33:57;96499.69;;;14.94;79.93
52591;BME280;38483;42.620;25.394;2023-04-15T06:36:25;96481.78;;;14.89;79.61
52591;BME280;38483;42.620;25.394;2023-04-15T06:38:53;96488.56;;;14.92;78.96
52591;BME280;38483;42.620;25.394;2023-04-15T06:41:21;96495.91;;;14.61;79.56
52591;BME280;38483;42.620;25.394;2023-04-15T06:43:49;96493.25;;;14.50;79.34
52591;BME280;38483;42.620;25.394;2023-04-15T06:46:18;96488.03;;;14.50;79.65
52591;BME280;38483;42.620;25.394;2023-04-15T06:48:46;96501.38;;;14.58;79.25
52591;BME280;38483;42.620;25.394;2023-04-15T06:51:15;96502.28;;;14.57;79.01
52591;BME280;38483;42.620;25.394;2023-04-15T06:53:43;96515.41;;;14.68;78.65
52591;BME280;38483;42.620;25.394;2023-04-15T06:56:11;96504.16;;;14.55;78.54
52591;BME280;38483;42.620;25.394;2023-04-15T06:58:39;96512.94;;;14.54;79.31
52591;BME280;38483;42.620;25.394;2023-04-15T07:01:07;96513.94;;;14.77;78.90
52591;BME280;38483;42.620;25.394;2023-04-15T07:03:35;96533.19;;;14.87;78.56
52591;BME280;38483;42.620;25.394;2023-04-15T07:06:04;96513.09;;;15.00;77.22
52591;BME280;38483;42.620;25.394;2023-04-15T07:08:34;96525.97;;;15.27;76.26
52591;BME280;38483;42.620;25.394;2023-04-15T07:11:02;96521.81;;;15.83;75.71
52591;BME280;38483;42.620;25.394;2023-04-15T07:13:31;96518.28;;;15.95;73.62
52591;BME280;38483;42.620;25.394;2023-04-15T07:15:59;96521.66;;;16.19;71.73
52591;BME280;38483;42.620;25.394;2023-04-15T07:18:27;96538.66;;;16.47;70.03
52591;BME280;38483;42.620;25.394;2023-04-15T07:20:55;96530.09;;;16.11;69.65
52591;BME280;38483;42.620;25.394;2023-04-15T07:23:24;96522.16;;;16.57;70.12
52591;BME280;38483;42.620;25.394;2023-04-15T07:25:52;96533.47;;;16.58;70.28
52591;BME280;38483;42.620;25.394;2023-04-15T07:28:20;96539.28;;;16.61;68.75
52591;BME280;38483;42.620;25.394;2023-04-15T07:30:48;96534.59;;;16.43;69.27
52591;BME280;38483;42.620;25.394;2023-04-15T07:33:17;96529.16;;;16.23;68.12
52591;BME280;38483;42.620;25.394;2023-04-15T07:35:45;96529.47;;;16.08;69.55
52591;BME280;38483;42.620;25.394;2023-04-15T07:38:14;96537.28;;;15.97;69.82
52591;BME280;38483;42.620;25.394;2023-04-15T07:40:42;96540.28;;;15.69;71.67
52591;BME280;38483;42.620;25.394;2023-04-15T07:43:10;96527.44;;;16.00;71.33
52591;BME280;38483;42.620;25.394;2023-04-15T07:45:40;96528.13;;;15.91;71.89
52591;BME280;38483;42.620;25.394;2023-04-15T07:48:08;96520.59;;;16.21;69.85
52591;BME280;38483;42.620;25.394;2023-04-15T07:50:36;96528.31;;;15.77;70.32
52591;BME280;38483;42.620;25.394;2023-04-15T07:53:05;96530.56;;;15.71;71.46
52591;BME280;38483;42.620;25.394;2023-04-15T07:55:34;96526.13;;;16.06;72.29
52591;BME280;38483;42.620;25.394;2023-04-15T07:58:02;96540.78;;;16.30;70.98
52591;BME280;38483;42.620;25.394;2023-04-15T08:00:30;96543.63;;;16.39;70.50
52591;BME280;38483;42.620;25.394;2023-04-15T08:02:58;96541.78;;;16.74;70.18
52591;BME280;38483;42.620;25.394;2023-04-15T08:05:30;96550.22;;;16.99;68.91
52591;BME280;38483;42.620;25.394;2023-04-15T08:08:13;96545.59;;;16.81;68.03
52591;BME280;38483;42.620;25.394;2023-04-15T08:10:41;96539.59;;;16.23;68.27
52591;BME280;38483;42.620;25.394;2023-04-15T08:13:10;96550.63;;;16.16;68.55
52591;BME280;38483;42.620;25.394;2023-04-15T08:15:41;96541.84;;;16.17;68.86
52591;BME280;38483;42.620;25.394;2023-04-15T08:18:11;96546.09;;;16.07;69.37
52591;BME280;38483;42.620;25.394;2023-04-15T08:20:39;96520.44;;;16.12;69.56
52591;BME280;38483;42.620;25.394;2023-04-15T08:23:07;96565.91;;;16.55;67.83
52591;BME280;38483;42.620;25.394;2023-04-15T08:25:35;96546.31;;;16.50;68.92
52591;BME280;38483;42.620;25.394;2023-04-15T08:28:04;96522.13;;;16.13;69.17
52591;BME280;38483;42.620;25.394;2023-04-15T08:30:34;96545.53;;;16.37;69.12
52591;BME280;38483;42.620;25.394;2023-04-15T08:33:02;96543.44;;;16.64;66.47
52591;BME280;38483;42.620;25.394;2023-04-15T08:35:30;96536.06;;;16.91;65.74
52591;BME280;38483;42.620;25.394;2023-04-15T08:37:59;96553.84;;;17.30;65.65
52591;BME280;38483;42.620;25.394;2023-04-15T08:40:43;96561.03;;;17.06;65.22
52591;BME280;38483;42.620;25.394;2023-04-15T08:43:18;96548.19;;;16.92;65.50
52591;BME280;38483;42.620;25.394;2023-04-15T08:45:49;96552.34;;;17.48;65.08
52591;BME280;38483;42.620;25.394;2023-04-15T08:48:18;96549.03;;;17.57;63.93
52591;BME280;38483;42.620;25.394;2023-04-15T08:50:47;96558.34;;;17.28;63.94
52591;BME280;38483;42.620;25.394;2023-04-15T08:53:15;96556.94;;;17.24;64.23
52591;BME280;38483;42.620;25.394;2023-04-15T08:55:45;96562.13;;;17.35;65.25
52591;BME280;38483;42.620;25.394;2023-04-15T08:58:16;96548.88;;;17.05;65.92
52591;BME280;38483;42.620;25.394;2023-04-15T09:00:46;96542.94;;;17.14;65.41
52591;BME280;38483;42.620;25.394;2023-04-15T09:03:16;96549.81;;;17.15;64.08
52591;BME280;38483;42.620;25.394;2023-04-15T09:05:44;96525.16;;;16.64;65.05
52591;BME280;38483;42.620;25.394;2023-04-15T09:08:32;96544.56;;;16.26;67.09
52591;BME280;38483;42.620;25.394;2023-04-15T09:11:53;96529.91;;;16.59;65.73
52591;BME280;38483;42.620;25.394;2023-04-15T09:14:21;96532.75;;;15.88;67.07
52591;BME280;38483;42.620;25.394;2023-04-15T09:16:56;96526.75;;;16.20;66.75
52591;BME280;38483;42.620;25.394;2023-04-15T09:19:26;96531.03;;;16.33;65.34
52591;BME280;38483;42.620;25.394;2023-04-15T09:21:58;96519.91;;;16.75;64.06
52591;BME280;38483;42.620;25.394;2023-04-15T09:24:35;96501.88;;;16.50;64.18
52591;BME280;38483;42.620;25.394;2023-04-15T09:27:04;96510.16;;;16.66;64.71
52591;BME280;38483;42.620;25.394;2023-04-15T09:29:33;96521.06;;;17.04;64.21
52591;BME280;38483;42.620;25.394;2023-04-15T09:32:14;96523.91;;;17.01;62.82
52591;BME280;38483;42.620;25.394;2023-04-15T09:34:43;96516.84;;;17.24;62.22
52591;BME280;38483;42.620;25.394;2023-04-15T09:37:11;96506.28;;;17.46;61.67
52591;BME280;38483;42.620;25.394;2023-04-15T09:39:58;96523.44;;;17.81;60.24
52591;BME280;38483;42.620;25.394;2023-04-15T09:42:26;96523.38;;;17.72;58.55
52591;BME280;38483;42.620;25.394;2023-04-15T09:45:07;96517.41;;;17.49;60.11
52591;BME280;38483;42.620;25.394;2023-04-15T09:47:35;96509.31;;;17.41;62.02
52591;BME280;38483;42.620;25.394;2023-04-15T09:50:04;96519.88;;;16.97;63.65
52591;BME280;38483;42.620;25.394;2023-04-15T09:52:32;96506.09;;;16.95;64.03
52591;BME280;38483;42.620;25.394;2023-04-15T09:55:01;96494.19;;;17.34;63.31
52591;BME280;38483;42.620;25.394;2023-04-15T09:57:36;96501.78;;;17.79;61.63
52591;BME280;38483;42.620;25.394;2023-04-15T10:00:06;96497.94;;;18.04;60.06
52591;BME280;38483;42.620;25.394;2023-04-15T10:02:36;96497.28;;;18.12;58.13
52591;BME280;38483;42.620;25.394;2023-04-15T10:05:05;96498.97;;;18.43;57.05
52591;BME280;38483;42.620;25.394;2023-04-15T10:07:34;96488.44;;;18.33;55.87
52591;BME280;38483;42.620;25.394;2023-04-15T10:10:02;96491.25;;;18.41;54.35
52591;BME280;38483;42.620;25.394;2023-04-15T10:12:31;96494.13;;;18.38;52.94
52591;BME280;38483;42.620;25.394;2023-04-15T10:15:03;96491.25;;;18.72;52.59
52591;BME280;38483;42.620;25.394;2023-04-15T10:17:33;96493.41;;;19.06;51.36
52591;BME280;38483;42.620;25.394;2023-04-15T10:20:03;96497.00;;;19.05;51.11
52591;BME280;38483;42.620;25.394;2023-04-15T10:22:32;96484.06;;;18.74;51.71
52591;BME280;38483;42.620;25.394;2023-04-15T10:25:01;96473.50;;;18.94;51.42
52591;BME280;38483;42.620;25.394;2023-04-15T10:27:31;96481.50;;;19.02;49.48
52591;BME280;38483;42.620;25.394;2023-04-15T10:30:00;96477.75;;;19.35;49.35
52591;BME280;38483;42.620;25.394;2023-04-15T10:32:30;96477.59;;;19.75;48.60
52591;BME280;38483;42.620;25.394;2023-04-15T10:34:59;96479.66;;;19.33;48.91
52591;BME280;38483;42.620;25.394;2023-04-15T10:37:35;96487.25;;;19.26;49.04
52591;BME280;38483;42.620;25.394;2023-04-15T10:43:15;96476.91;;;19.63;48.33
52591;BME280;38483;42.620;25.394;2023-04-15T10:45:54;96463.19;;;19.12;48.95
52591;BME280;38483;42.620;25.394;2023-04-15T10:48:22;96470.25;;;19.49;49.19
52591;BME280;38483;42.620;25.394;2023-04-15T10:50:58;96466.53;;;19.52;47.60
52591;BME280;38483;42.620;25.394;2023-04-15T10:53:28;96460.97;;;19.74;46.96
52591;BME280;38483;42.620;25.394;2023-04-15T10:55:58;96460.53;;;19.98;46.10
52591;BME280;38483;42.620;25.394;2023-04-15T10:58:40;96477.16;;;19.22;48.00
52591;BME280;38483;42.620;25.394;2023-04-15T11:01:08;96468.06;;;19.45;47.84
52591;BME280;38483;42.620;25.394;2023-04-15T11:03:38;96473.59;;;19.80;47.68
52591;BME280;38483;42.620;25.394;2023-04-15T11:06:08;96462.53;;;19.58;47.13
52591;BME280;38483;42.620;25.394;2023-04-15T11:08:58;96470.78;;;19.24;47.06
52591;BME280;38483;42.620;25.394;2023-04-15T11:12:03;96470.81;;;19.43;46.77
52591;BME280;38483;42.620;25.394;2023-04-15T11:14:33;96461.00;;;19.45;45.99
52591;BME280;38483;42.620;25.394;2023-04-15T11:17:04;96458.50;;;19.73;45.87
52591;BME280;38483;42.620;25.394;2023-04-15T11:19:38;96458.66;;;19.62;46.13
52591;BME280;38483;42.620;25.394;2023-04-15T11:22:08;96449.94;;;19.80;45.96
52591;BME280;38483;42.620;25.394;2023-04-15T11:24:46;96450.72;;;20.00;45.41
52591;BME280;38483;42.620;25.394;2023-04-15T11:27:23;96449.50;;;19.85;46.08
52591;BME280;38483;42.620;25.394;2023-04-15T11:29:51;96441.91;;;19.72;46.72
52591;BME280;38483;42.620;25.394;2023-04-15T11:32:20;96448.16;;;19.42;47.69
52591;BME280;38483;42.620;25.394;2023-04-15T11:34:50;96446.47;;;19.80;46.75
52591;BME280;38483;42.620;25.394;2023-04-15T11:37:27;96444.53;;;19.82;45.12
52591;BME280;38483;42.620;25.394;2023-04-15T11:39:56;96447.53;;;19.96;44.94
52591;BME280;38483;42.620;25.394;2023-04-15T11:42:24;96434.88;;;20.28;43.54
52591;BME280;38483;42.620;25.394;2023-04-15T11:45:13;96440.28;;;20.17;44.71
52591;BME280;38483;42.620;25.394;2023-04-15T11:47:42;96433.34;;;19.41;46.39
52591;BME280;38483;42.620;25.394;2023-04-15T11:50:21;96422.00;;;19.60;46.55
52591;BME280;38483;42.620;25.394;2023-04-15T11:52:59;96435.97;;;19.80;45.28
52591;BME280;38483;42.620;25.394;2023-04-15T11:55:27;96443.28;;;19.28;46.54
52591;BME280;38483;42.620;25.394;2023-04-15T12:00:51;96441.44;;;18.81;47.77
52591;BME280;38483;42.620;25.394;2023-04-15T12:03:24;96425.72;;;19.00;47.30
52591;BME280;38483;42.620;25.394;2023-04-15T12:06:24;96421.88;;;19.23;47.33
52591;BME280;38483;42.620;25.394;2023-04-15T12:14:05;96423.78;;;19.79;46.33
52591;BME280;38483;42.620;25.394;2023-04-15T12:16:38;96410.53;;;19.13;46.66
52591;BME280;38483;42.620;25.394;2023-04-15T12:19:20;96402.78;;;18.93;47.82
52591;BME280;38483;42.620;25.394;2023-04-15T12:21:49;96417.88;;;19.10;47.27
52591;BME280;38483;42.620;25.394;2023-04-15T12:24:20;96413.00;;;19.15;46.59
52591;BME280;38483;42.620;25.394;2023-04-15T12:26:50;96410.78;;;18.91;46.56
52591;BME280;38483;42.620;25.394;2023-04-15T12:29:19;96425.16;;;18.87;47.28
52591;BME280;38483;42.620;25.394;2023-04-15T12:32:13;96426.28;;;19.04;47.25
52591;BME280;38483;42.620;25.394;2023-04-15T12:34:51;96426.50;;;18.72;47.40
52591;BME280;38483;42.620;25.394;2023-04-15T12:37:19;96409.22;;;18.69;48.21
52591;BME280;38483;42.620;25.394;2023-04-15T12:39:48;96414.91;;;18.84;48.25
52591;BME280;38483;42.620;25.394;2023-04-15T12:42:16;96413.53;;;18.80;48.41
52591;BME280;38483;42.620;25.394;2023-04-15T12:44:44;96413.16;;;18.45;48.96
52591;BME280;38483;42.620;25.394;2023-04-15T12:47:12;96412.25;;;18.65;49.00
52591;BME280;38483;42.620;25.394;2023-04-15T12:49:39;96404.13;;;18.78;48.17
52591;BME280;38483;42.620;25.394;2023-04-15T12:52:07;96414.19;;;18.63;48.29
52591;BME280;38483;42.620;25.394;2023-04-15T12:54:34;96416.00;;;18.72;48.51
52591;BME280;38483;42.620;25.394;2023-04-15T12:57:02;96417.19;;;18.49;49.19
52591;BME280;38483;42.620;25.394;2023-04-15T12:59:34;96417.25;;;18.68;49.38
52591;BME280;38483;42.620;25.394;2023-04-15T13:02:02;96399.56;;;18.70;48.75
52591;BME280;38483;42.620;25.394;2023-04-15T13:04:29;96408.81;;;18.64;47.88
52591;BME280;38483;42.620;25.394;2023-04-15T13:06:57;96408.97;;;18.73;47.34
52591;BME280;38483;42.620;25.394;2023-04-15T13:09:27;96396.94;;;18.80;47.88
52591;BME280;38483;42.620;25.394;2023-04-15T13:11:54;96407.47;;;18.89;46.81
52591;BME280;38483;42.620;25.394;2023-04-15T13:14:23;96405.53;;;19.10;45.84
52591;BME280;38483;42.620;25.394;2023-04-15T13:16:50;96410.13;;;19.18;43.29
52591;BME280;38483;42.620;25.394;2023-04-15T13:19:17;96390.38;;;19.14;42.56